Aérodrome :
LOGIN :

S'inscrire | Disclaimer

   EN    FR    IT 

 










Légende :    VFR   VFR Marginal   IFR   IFR Intensif   IFR Très Intensif
Visi : 
Plafond : 
>= 8 km
>= 3000ft
5 à 8 km
1000 à 3000 ft
1500m à 5 km
500 à 1000 ft
800 à 1500m
200 à 500 ft
< 800m
< 200 ft
Symboles :   Orages  Brouillard  Fortes neiges  Fortes précipitations  Vent > 20 kt
SIGMETs :   Divers  Orages  Givrage  Turbulence  Onde Orograph.  Cendres Volcan.






- Altitude de l'aérodrome : 1416 ft
- Code IATA : ZRH


LSZH - Zurich

DERNIER METAR :
  • 071320Z 29011KT 9999 FEW029 SCT031 BKN044 09/04 Q1019 NOSIG

METARs EXPIRÉS :
  • 071250Z 30006KT 9999 FEW027 SCT050 10/05 Q1019 NOSIG
  • 071220Z 30011KT 9999 FEW030 SCT050 10/04 Q1019 NOSIG
  • 071150Z 30008KT 9999 FEW029 SCT050 10/04 Q1019 NOSIG
  • 071120Z 27008KT 240V310 9999 FEW028 BKN044 10/04 Q1020 NOSIG
  • 071050Z 29006KT 250V330 9999 FEW028 SCT036 BKN044 09/04 Q1020 NOSIG

TAF TAF LSZH
Valide du 07 à 12h jusqu'au 08 à 18h UTC


071125Z 0712/0818 27007KT 9999 FEW035 BKN050 TX10/0714Z TN03/0806Z TX10/0812Z
TEMPO 0712/0715 SHRA
BECMG 0721/0724 CAVOK
PROB30
TEMPO 0802/0808 1500 BCFG
BECMG 0815/0818 22005KT 9999 BKN065
ATIS : +41 43 816 2295 (DEP) +41 43 816 2294 (ARR)



MET'MAP, la Météo Aéronautique d'un coup d'oeil ! - Copyright ORBIFLY Décembre 2007 - Disclaimer

ORBIFLY MET'MAP TEAM :

Programmation & Développement : Alexandra Zaïnal
Sur une idée originale de : Baudouin d'Aumeries
Assistance à la programmation : Marc-Olivier Méhu
Soutien technique & logistique : Manuel Goepfert

Contact : metmap@orbifly.com




SOURCES & CREDITS :

   NOAA